createdAt,value
2022-08-02T00:09:04.927Z,77.68
2022-08-02T00:19:11.044Z,78.31
2022-08-02T00:29:16.797Z,78.96
2022-08-02T00:39:35.260Z,79.49
2022-08-02T00:49:41.823Z,79.86
2022-08-02T00:59:47.659Z,79.95
2022-08-02T01:09:53.841Z,79.90
2022-08-02T01:20:07.933Z,80.32
2022-08-02T01:30:16.166Z,80.77
2022-08-02T01:40:30.386Z,81.03
2022-08-02T01:50:38.593Z,81.22
2022-08-02T02:00:47.418Z,81.81
2022-08-02T02:10:54.206Z,81.89
2022-08-02T02:21:00.424Z,82.26
2022-08-02T02:31:09.303Z,82.26
2022-08-02T02:41:16.722Z,82.50
2022-08-02T02:51:23.435Z,82.63
2022-08-02T03:01:56.192Z,82.58
2022-08-02T03:11:58.457Z,82.34
2022-08-02T03:22:04.691Z,82.56
2022-08-02T03:32:11.142Z,82.92
2022-08-02T03:42:18.384Z,82.95
2022-08-02T03:52:25.490Z,83.05
2022-08-02T04:02:31.198Z,82.88
2022-08-02T04:12:36.957Z,81.67
2022-08-02T04:22:48.749Z,80.49
2022-08-02T04:32:55.616Z,79.97
2022-08-02T04:43:01.652Z,79.49
2022-08-02T04:53:07.545Z,79.06
2022-08-02T05:03:14.675Z,79.22
2022-08-02T05:13:20.458Z,79.46
2022-08-02T05:23:26.426Z,79.41
2022-08-02T05:33:32.209Z,79.13
2022-08-02T05:43:37.922Z,79.08
2022-08-02T05:53:59.344Z,78.51
2022-08-02T06:04:08.396Z,77.89
2022-08-02T06:14:14.889Z,77.68
2022-08-02T06:24:23.031Z,77.07
2022-08-02T06:34:27.345Z,76.34
2022-08-02T06:44:51.982Z,74.83
2022-08-02T06:54:59.948Z,74.27
2022-08-02T07:05:07.590Z,72.74
2022-08-02T07:15:13.932Z,71.39
2022-08-02T07:25:19.606Z,71.76
2022-08-02T07:35:25.439Z,71.74
2022-08-02T07:45:35.696Z,71.51
2022-08-02T07:55:42.014Z,71.60
2022-08-02T08:05:48.056Z,72.02
2022-08-02T08:15:53.911Z,72.37
2022-08-02T08:25:59.806Z,72.58
2022-08-02T08:36:06.143Z,72.67
2022-08-02T08:46:19.862Z,72.52
2022-08-02T08:56:30.559Z,72.97
2022-08-02T09:06:36.448Z,73.10
2022-08-02T09:16:43.838Z,73.09
2022-08-02T09:26:51.139Z,73.55
2022-08-02T09:36:57.037Z,73.64
2022-08-02T09:47:14.649Z,73.78
2022-08-02T09:57:29.404Z,73.61
2022-08-02T10:07:35.749Z,72.99
2022-08-02T10:17:42.727Z,72.30
2022-08-02T10:28:04.820Z,71.33
2022-08-02T10:38:13.975Z,70.34
2022-08-02T10:48:19.975Z,69.24
2022-08-02T10:58:30.159Z,67.80
2022-08-02T11:08:36.857Z,65.74
2022-08-02T11:19:07.132Z,64.67
2022-08-02T11:29:15.581Z,62.20
2022-08-02T11:39:23.653Z,60.93
2022-08-02T11:49:31.138Z,59.94
2022-08-02T11:59:40.403Z,58.31
2022-08-02T12:09:46.382Z,57.36
2022-08-02T12:19:52.194Z,56.34
2022-08-02T12:30:03.602Z,55.98
2022-08-02T12:40:25.487Z,54.76
2022-08-02T12:50:34.861Z,54.20
2022-08-02T13:00:41.389Z,53.01
2022-08-02T13:10:47.362Z,52.34
2022-08-02T13:20:53.580Z,51.66
2022-08-02T13:31:14.898Z,51.60
2022-08-02T13:41:24.973Z,51.50
2022-08-02T13:51:30.800Z,50.72
2022-08-02T14:01:43.893Z,49.96
2022-08-02T14:11:50.400Z,49.47
2022-08-02T14:22:10.844Z,48.69
2022-08-02T14:32:17.426Z,48.64
2022-08-02T14:42:23.389Z,48.97
2022-08-02T14:52:29.246Z,49.29
2022-08-02T15:02:34.900Z,49.69
2022-08-02T15:12:40.597Z,49.29
2022-08-02T15:22:46.424Z,49.67
2022-08-02T15:32:55.573Z,49.34
2022-08-02T15:43:01.503Z,49.34
2022-08-02T15:53:07.153Z,49.32
2022-08-02T16:03:12.972Z,49.57
2022-08-02T16:13:41.050Z,49.93
2022-08-02T16:24:02.699Z,50.15
2022-08-02T16:34:09.397Z,50.38
2022-08-02T16:44:17.122Z,50.23
2022-08-02T16:54:23.489Z,50.10
2022-08-02T17:04:32.395Z,49.26
2022-08-02T17:14:41.901Z,48.06
2022-08-02T17:25:00.612Z,48.32
2022-08-02T17:35:10.084Z,49.49
2022-08-02T17:45:17.085Z,50.83
2022-08-02T17:55:33.313Z,52.32
2022-08-02T18:05:53.395Z,53.53
2022-08-02T18:16:01.257Z,55.15
2022-08-02T18:26:08.120Z,56.92
2022-08-02T18:36:25.085Z,58.35
2022-08-02T18:46:31.395Z,59.97
2022-08-02T18:56:39.166Z,61.36
2022-08-02T19:06:45.531Z,62.81
2022-08-02T19:16:58.127Z,63.81
2022-08-02T19:27:14.205Z,65.08
2022-08-02T19:37:20.779Z,66.22
2022-08-02T19:47:26.510Z,67.30
2022-08-02T19:57:44.227Z,68.33
2022-08-02T20:07:56.319Z,69.08
2022-08-02T20:18:02.489Z,69.87
2022-08-02T20:28:08.516Z,70.48
2022-08-02T20:38:14.555Z,71.09
2022-08-02T20:48:20.477Z,72.11
2022-08-02T20:58:35.488Z,72.71
2022-08-02T21:08:42.180Z,72.90
2022-08-02T21:18:55.911Z,73.46
2022-08-02T21:29:05.977Z,73.92
2022-08-02T21:39:12.279Z,74.68
2022-08-02T21:49:18.189Z,75.10
2022-08-02T21:59:26.715Z,75.34
2022-08-02T22:09:44.277Z,75.72
2022-08-02T22:19:51.109Z,76.18
2022-08-02T22:29:59.950Z,76.66
2022-08-02T22:40:09.896Z,77.08
2022-08-02T22:50:15.737Z,77.24
2022-08-02T23:00:22.130Z,77.29
2022-08-02T23:10:27.961Z,77.61
2022-08-02T23:20:34.237Z,78.26
2022-08-02T23:30:40.273Z,78.35
2022-08-02T23:40:46.368Z,78.37
2022-08-02T23:50:52.145Z,78.78
